Time;durP1;ratioP1;P1;durP2;ratioP2;P2;SDS_P1;SDS_P2;PMS_P1;PMS_P2;Temp;Humidity;BMP_temperature;BMP_pressure;BME280_temperature;BME280_humidity;BME280_pressure;Samples;Min_cycle;Max_cycle;Signal;HPM_P1;HPM_P2
2023/03/12 00:02:02;;;;;;;21.52;9.05;;;;;;;;;;5058831;28;20049;-85
2023/03/12 00:04:30;;;;;;;17.13;8.73;;;;;;;;;;5058570;28;20974;-85
2023/03/12 00:06:58;;;;;;;15.93;8.40;;;;;;;;;;5058599;28;20075;-85
2023/03/12 00:09:25;;;;;;;18.42;9.00;;;;;;;;;;5076147;28;20489;-85
2023/03/12 00:11:52;;;;;;;20.02;7.60;;;;;;;;;;5076177;28;20045;-85
2023/03/12 00:14:19;;;;;;;16.73;7.90;;;;;;;;;;5076201;28;20049;-85
2023/03/12 00:16:46;;;;;;;15.90;7.28;;;;;;;;;;5058271;28;20414;-84
2023/03/12 00:19:14;;;;;;;14.70;6.05;;;;;;;;;;5058273;28;20044;-85
2023/03/12 00:21:41;;;;;;;12.93;7.00;;;;;;;;;;5058424;28;20052;-85
2023/03/12 00:24:08;;;;;;;13.18;5.97;;;;;;;;;;5075896;28;20053;-85
2023/03/12 00:26:35;;;;;;;8.80;5.00;;;;;;;;;;5058193;28;20480;-85
2023/03/12 00:29:02;;;;;;;10.70;5.15;;;;;;;;;;5075971;28;20044;-85
2023/03/12 00:31:31;;;;;;;8.48;4.65;;;;;;;;;;5075934;28;20518;-85
2023/03/12 00:34:00;;;;;;;9.88;4.55;;;;;;;;;;5058009;28;20060;-85
2023/03/12 00:36:29;;;;;;;8.50;3.63;;;;;;;;;;5058137;28;20048;-85
2023/03/12 00:38:56;;;;;;;6.85;4.10;;;;;;;;;;5057621;28;20499;-85
2023/03/12 00:41:24;;;;;;;6.53;4.35;;;;;;;;;;5061889;28;20044;-85
2023/03/12 00:43:52;;;;;;;7.38;4.05;;;;;;;;;;5095631;28;20127;-84
2023/03/12 00:46:19;;;;;;;6.85;4.05;;;;;;;;;;5077614;28;20080;-85
2023/03/12 00:48:46;;;;;;;6.22;3.83;;;;;;;;;;5095607;28;20055;-85
2023/03/12 00:51:14;;;;;;;6.78;3.72;;;;;;;;;;5095461;28;20063;-85
2023/03/12 00:53:41;;;;;;;7.35;3.55;;;;;;;;;;5077850;28;20136;-84
2023/03/12 00:56:08;;;;;;;6.85;4.15;;;;;;;;;;5095432;28;20048;-84
2023/03/12 00:58:36;;;;;;;11.38;4.85;;;;;;;;;;5095620;28;20070;-85
2023/03/12 01:01:03;;;;;;;13.77;6.40;;;;;;;;;;5095358;28;20044;-85
2023/03/12 01:03:31;;;;;;;11.05;5.63;;;;;;;;;;5095859;28;20089;-85
2023/03/12 01:05:58;;;;;;;9.35;5.45;;;;;;;;;;5077288;28;20058;-85
2023/03/12 01:08:25;;;;;;;10.13;4.60;;;;;;;;;;5095515;28;20044;-85
2023/03/12 01:10:52;;;;;;;8.35;3.83;;;;;;;;;;5076734;28;20054;-85
2023/03/12 01:13:20;;;;;;;4.53;3.83;;;;;;;;;;5077380;28;20131;-84
2023/03/12 01:15:47;;;;;;;4.93;3.40;;;;;;;;;;5077239;28;20051;-85
2023/03/12 01:18:15;;;;;;;6.82;3.45;;;;;;;;;;5094684;28;20052;-85
2023/03/12 01:20:42;;;;;;;7.45;3.33;;;;;;;;;;5077100;28;20052;-84
2023/03/12 01:23:09;;;;;;;8.25;3.85;;;;;;;;;;5077028;28;20055;-84
2023/03/12 01:25:36;;;;;;;8.48;4.25;;;;;;;;;;5076964;28;20076;-85
2023/03/12 01:28:04;;;;;;;4.95;3.33;;;;;;;;;;5076737;28;20113;-85
2023/03/12 01:30:32;;;;;;;4.63;2.88;;;;;;;;;;5094930;28;20066;-85
2023/03/12 01:32:59;;;;;;;5.47;3.58;;;;;;;;;;5076593;28;20514;-84
2023/03/12 01:35:26;;;;;;;6.40;3.97;;;;;;;;;;5076896;28;20419;-85
2023/03/12 01:37:54;;;;;;;7.88;3.88;;;;;;;;;;5094508;28;20052;-83
2023/03/12 01:40:24;;;;;;;7.80;3.70;;;;;;;;;;5076658;28;20048;-84
2023/03/12 01:42:56;;;;;;;6.32;3.10;;;;;;;;;;5076752;28;20044;-84
2023/03/12 01:45:43;;;;;;;9.70;3.25;;;;;;;;;;5077155;28;20138;-85
2023/03/12 01:48:10;;;;;;;6.00;3.03;;;;;;;;;;5094463;28;20052;-84
2023/03/12 01:50:38;;;;;;;6.97;3.83;;;;;;;;;;5094600;28;20044;-84
2023/03/12 01:53:05;;;;;;;6.93;4.10;;;;;;;;;;5076111;28;20048;-85
2023/03/12 01:55:32;;;;;;;7.43;3.55;;;;;;;;;;5094134;28;20044;-85
2023/03/12 01:58:01;;;;;;;8.35;3.05;;;;;;;;;;5094345;28;20588;-85
2023/03/12 02:00:28;;;;;;;8.25;3.28;;;;;;;;;;5094370;28;20044;-84
2023/03/12 02:03:00;;;;;;;6.05;2.70;;;;;;;;;;5076539;28;20066;-84
2023/03/12 02:05:45;;;;;;;5.60;2.90;;;;;;;;;;5093981;28;20071;-84
2023/03/12 02:08:12;;;;;;;5.72;3.15;;;;;;;;;;5076075;28;20286;-84
2023/03/12 02:10:40;;;;;;;4.40;3.28;;;;;;;;;;5094207;28;20059;-84
2023/03/12 02:13:07;;;;;;;6.55;3.10;;;;;;;;;;5093975;28;20536;-84
2023/03/12 02:15:35;;;;;;;8.13;3.17;;;;;;;;;;5075455;28;20411;-84
2023/03/12 02:18:03;;;;;;;6.03;2.92;;;;;;;;;;5093700;28;20404;-84
2023/03/12 02:20:36;;;;;;;4.97;3.13;;;;;;;;;;5075538;28;20044;-84
2023/03/12 02:23:16;;;;;;;4.18;2.88;;;;;;;;;;5075426;28;20047;-84
2023/03/12 02:25:47;;;;;;;5.05;2.83;;;;;;;;;;5075831;28;20044;-85
2023/03/12 02:28:16;;;;;;;7.20;3.35;;;;;;;;;;5075685;28;20062;-84
2023/03/12 02:30:46;;;;;;;5.30;3.15;;;;;;;;;;5075709;28;20542;-84
2023/03/12 02:33:14;;;;;;;4.45;2.55;;;;;;;;;;5075484;28;20051;-84
2023/03/12 02:35:42;;;;;;;2.78;2.58;;;;;;;;;;5093483;28;20052;-84
2023/03/12 02:38:28;;;;;;;8.43;2.75;;;;;;;;;;5075305;28;20055;-85
2023/03/12 02:40:56;;;;;;;6.63;2.83;;;;;;;;;;5093300;28;20058;-84
2023/03/12 02:43:24;;;;;;;6.15;2.40;;;;;;;;;;5075441;28;20510;-84
2023/03/12 02:45:51;;;;;;;6.47;2.65;;;;;;;;;;5075338;28;20051;-84
2023/03/12 02:48:18;;;;;;;7.93;3.05;;;;;;;;;;5075558;28;20086;-84
2023/03/12 02:50:46;;;;;;;5.57;2.95;;;;;;;;;;5093618;28;20048;-84
2023/03/12 02:53:13;;;;;;;4.07;2.85;;;;;;;;;;5075240;28;20052;-84
2023/03/12 02:55:40;;;;;;;8.30;2.85;;;;;;;;;;5075089;28;20543;-85
2023/03/12 02:58:08;;;;;;;4.82;2.80;;;;;;;;;;5075096;28;20087;-85
2023/03/12 03:00:36;;;;;;;6.75;2.75;;;;;;;;;;5075282;28;20449;-85
2023/03/12 03:03:03;;;;;;;4.78;2.85;;;;;;;;;;5075171;28;20048;-83
2023/03/12 03:05:30;;;;;;;6.25;2.58;;;;;;;;;;5075221;28;20502;-85
2023/03/12 03:08:01;;;;;;;4.15;2.63;;;;;;;;;;5075594;28;20051;-85
2023/03/12 03:10:28;;;;;;;5.45;2.70;;;;;;;;;;5092999;28;20052;-84
2023/03/12 03:12:56;;;;;;;5.20;2.65;;;;;;;;;;5092890;28;20055;-85
2023/03/12 03:15:24;;;;;;;3.72;2.53;;;;;;;;;;5092903;28;20083;-84
2023/03/12 03:17:51;;;;;;;7.43;3.28;;;;;;;;;;5092734;28;20059;-85
2023/03/12 03:20:18;;;;;;;4.15;2.78;;;;;;;;;;5092828;28;20066;-85
2023/03/12 03:22:46;;;;;;;4.18;2.85;;;;;;;;;;5074894;28;20047;-84
2023/03/12 03:25:13;;;;;;;4.60;2.60;;;;;;;;;;5092606;28;20059;-84
2023/03/12 03:27:40;;;;;;;4.82;2.30;;;;;;;;;;5092865;28;20070;-84
2023/03/12 03:30:08;;;;;;;4.13;3.00;;;;;;;;;;5074838;28;20052;-85
2023/03/12 03:32:35;;;;;;;3.35;3.05;;;;;;;;;;5076921;28;20059;-85
2023/03/12 03:35:03;;;;;;;3.22;2.30;;;;;;;;;;5081444;28;20483;-84
2023/03/12 03:37:30;;;;;;;3.67;2.47;;;;;;;;;;5081294;28;20040;-85
2023/03/12 03:39:57;;;;;;;3.90;2.53;;;;;;;;;;5081432;28;20478;-85
2023/03/12 03:42:24;;;;;;;3.50;2.50;;;;;;;;;;5081723;28;20052;-85
2023/03/12 03:44:51;;;;;;;3.90;2.50;;;;;;;;;;5081393;28;20048;-85
2023/03/12 03:47:19;;;;;;;5.03;2.75;;;;;;;;;;5081591;28;20177;-85
2023/03/12 03:49:46;;;;;;;4.50;2.40;;;;;;;;;;5080903;28;20163;-85
2023/03/12 03:52:13;;;;;;;4.18;2.45;;;;;;;;;;5081515;28;20048;-85
2023/03/12 03:54:40;;;;;;;6.88;3.00;;;;;;;;;;5081248;28;20052;-85
2023/03/12 03:57:07;;;;;;;4.13;2.97;;;;;;;;;;5081484;28;20397;-85
2023/03/12 03:59:34;;;;;;;5.28;3.03;;;;;;;;;;5081197;28;20496;-85
2023/03/12 04:02:02;;;;;;;5.78;2.83;;;;;;;;;;5081175;28;20587;-84
2023/03/12 04:04:30;;;;;;;4.30;2.53;;;;;;;;;;5099035;28;20487;-85
2023/03/12 04:06:57;;;;;;;3.72;2.58;;;;;;;;;;5081440;28;20044;-85
2023/03/12 04:09:24;;;;;;;4.90;2.80;;;;;;;;;;5099321;28;20052;-85
2023/03/12 04:11:52;;;;;;;5.20;2.80;;;;;;;;;;5099150;28;20059;-84
2023/03/12 04:14:19;;;;;;;3.55;2.42;;;;;;;;;;5099122;28;20048;-84
2023/03/12 04:16:46;;;;;;;5.38;2.40;;;;;;;;;;5099076;28;20135;-85
2023/03/12 04:19:16;;;;;;;6.18;3.00;;;;;;;;;;5098933;28;20395;-85
2023/03/12 04:21:43;;;;;;;10.07;2.70;;;;;;;;;;5098953;28;20044;-85
2023/03/12 04:24:14;;;;;;;6.68;2.85;;;;;;;;;;5081003;28;20069;-85
2023/03/12 04:26:41;;;;;;;3.08;2.58;;;;;;;;;;5079573;28;20098;-84
2023/03/12 04:29:09;;;;;;;2.25;1.98;;;;;;;;;;5098872;28;20138;-85
2023/03/12 04:31:38;;;;;;;3.97;2.30;;;;;;;;;;5081555;28;20112;-85
2023/03/12 04:34:05;;;;;;;3.47;2.60;;;;;;;;;;5080594;28;20056;-85
2023/03/12 04:36:32;;;;;;;3.25;2.33;;;;;;;;;;5080879;28;20047;-84
2023/03/12 04:39:00;;;;;;;6.18;3.00;;;;;;;;;;5080990;28;20063;-85
2023/03/12 04:41:27;;;;;;;3.45;2.42;;;;;;;;;;5099240;28;20040;-84
2023/03/12 04:43:54;;;;;;;5.38;2.60;;;;;;;;;;5097025;28;20490;-85
2023/03/12 04:46:22;;;;;;;4.53;2.72;;;;;;;;;;5095498;28;20424;-85
2023/03/12 04:48:49;;;;;;;8.40;2.80;;;;;;;;;;5095618;28;20468;-85
2023/03/12 04:51:16;;;;;;;2.80;2.60;;;;;;;;;;5078026;28;20468;-85
2023/03/12 04:53:43;;;;;;;4.95;2.95;;;;;;;;;;5077731;28;20052;-84
2023/03/12 04:56:11;;;;;;;4.80;2.42;;;;;;;;;;5077224;28;20060;-84
2023/03/12 04:58:38;;;;;;;7.80;2.58;;;;;;;;;;5077570;28;20056;-85
2023/03/12 05:01:05;;;;;;;5.10;2.90;;;;;;;;;;5095207;28;20135;-85
2023/03/12 05:03:32;;;;;;;4.63;2.63;;;;;;;;;;5077515;28;20071;-85
2023/03/12 05:05:59;;;;;;;3.92;2.40;;;;;;;;;;5095216;28;20056;-85
2023/03/12 05:08:27;;;;;;;5.40;2.55;;;;;;;;;;5077399;28;20502;-85
2023/03/12 05:10:54;;;;;;;4.32;2.35;;;;;;;;;;5095123;28;20484;-84
2023/03/12 05:13:22;;;;;;;1.95;1.80;;;;;;;;;;5095259;28;20143;-85
2023/03/12 05:15:49;;;;;;;8.20;2.20;;;;;;;;;;5077157;28;20036;-83
2023/03/12 05:18:19;;;;;;;3.40;2.33;;;;;;;;;;5095218;28;20131;-85
2023/03/12 05:20:46;;;;;;;4.65;2.42;;;;;;;;;;5077310;28;20462;-85
2023/03/12 05:23:14;;;;;;;5.50;2.45;;;;;;;;;;5076992;28;20055;-84
2023/03/12 05:25:41;;;;;;;4.30;2.33;;;;;;;;;;5094811;28;20131;-85
2023/03/12 05:28:08;;;;;;;3.25;2.00;;;;;;;;;;5094863;28;20523;-84
2023/03/12 05:30:35;;;;;;;5.13;2.60;;;;;;;;;;5076954;28;20054;-85
2023/03/12 05:33:03;;;;;;;5.15;2.60;;;;;;;;;;5076612;28;20079;-85
2023/03/12 05:35:30;;;;;;;3.83;2.38;;;;;;;;;;5094654;28;20043;-85
2023/03/12 05:37:58;;;;;;;6.85;2.63;;;;;;;;;;5094248;28;20043;-85
2023/03/12 05:40:25;;;;;;;5.55;2.70;;;;;;;;;;5094804;28;20385;-84
2023/03/12 05:42:53;;;;;;;7.05;2.67;;;;;;;;;;5076446;28;20139;-85
2023/03/12 05:45:20;;;;;;;4.35;2.30;;;;;;;;;;5094524;28;20048;-85
2023/03/12 05:47:47;;;;;;;7.07;2.33;;;;;;;;;;5076647;28;20048;-84
2023/03/12 05:50:15;;;;;;;5.25;2.65;;;;;;;;;;5076522;28;20044;-85
2023/03/12 05:52:42;;;;;;;4.70;2.55;;;;;;;;;;5076508;28;20052;-85
2023/03/12 05:55:10;;;;;;;3.72;2.10;;;;;;;;;;5075871;28;20056;-85
2023/03/12 05:57:37;;;;;;;5.28;2.33;;;;;;;;;;5076312;28;20044;-85
2023/03/12 06:00:05;;;;;;;3.58;2.28;;;;;;;;;;5076518;28;20091;-85
2023/03/12 06:02:32;;;;;;;3.88;2.50;;;;;;;;;;5094324;28;20044;-85
2023/03/12 06:04:59;;;;;;;6.43;2.20;;;;;;;;;;5093793;28;20079;-85
2023/03/12 06:07:26;;;;;;;5.70;2.42;;;;;;;;;;5076161;28;20048;-84
2023/03/12 06:09:53;;;;;;;4.80;2.20;;;;;;;;;;5076013;28;20093;-85
2023/03/12 06:12:23;;;;;;;4.38;2.63;;;;;;;;;;5076367;28;20058;-85
2023/03/12 06:14:50;;;;;;;3.53;2.60;;;;;;;;;;5076049;28;20059;-85
2023/03/12 06:17:17;;;;;;;5.00;2.63;;;;;;;;;;5094159;28;20048;-85
2023/03/12 06:19:45;;;;;;;8.02;2.53;;;;;;;;;;5075556;28;20387;-85
2023/03/12 06:22:12;;;;;;;4.63;2.58;;;;;;;;;;5075686;28;20048;-85
2023/03/12 06:24:41;;;;;;;4.85;2.90;;;;;;;;;;5075798;28;20052;-85
2023/03/12 06:27:08;;;;;;;7.47;2.78;;;;;;;;;;5075837;28;20052;-85
2023/03/12 06:29:35;;;;;;;4.65;2.28;;;;;;;;;;5093704;28;20048;-84
2023/03/12 06:32:03;;;;;;;5.80;2.47;;;;;;;;;;5093331;28;20099;-84
2023/03/12 06:34:30;;;;;;;5.28;2.42;;;;;;;;;;5075635;28;20496;-85
2023/03/12 06:36:57;;;;;;;6.25;2.72;;;;;;;;;;5075527;28;20079;-84
2023/03/12 06:39:24;;;;;;;3.08;2.78;;;;;;;;;;5075614;28;20161;-85
2023/03/12 06:41:52;;;;;;;7.32;5.15;;;;;;;;;;5093520;28;20040;-85
2023/03/12 06:44:19;;;;;;;6.45;3.83;;;;;;;;;;5093422;28;20079;-85
2023/03/12 06:46:46;;;;;;;3.80;2.70;;;;;;;;;;5093200;28;20044;-84
2023/03/12 06:49:13;;;;;;;6.35;3.47;;;;;;;;;;5093195;28;20059;-85
2023/03/12 06:51:41;;;;;;;10.70;4.32;;;;;;;;;;5075383;28;20048;-85
2023/03/12 06:54:08;;;;;;;3.80;3.25;;;;;;;;;;5075390;28;20079;-85
2023/03/12 06:56:35;;;;;;;5.40;3.60;;;;;;;;;;5075513;28;20059;-85
2023/03/12 06:59:02;;;;;;;5.38;3.28;;;;;;;;;;5075352;28;20048;-85
2023/03/12 07:01:30;;;;;;;7.75;3.70;;;;;;;;;;5074906;28;20054;-85
2023/03/12 07:03:57;;;;;;;9.50;5.40;;;;;;;;;;5093052;28;20105;-85
2023/03/12 07:06:24;;;;;;;10.10;5.47;;;;;;;;;;5075182;28;20051;-85
2023/03/12 07:08:52;;;;;;;10.80;4.68;;;;;;;;;;5074791;28;20047;-85
2023/03/12 07:11:19;;;;;;;6.93;3.58;;;;;;;;;;5076481;28;20488;-85
2023/03/12 07:13:46;;;;;;;14.20;5.15;;;;;;;;;;5075037;28;20058;-85
2023/03/12 07:16:13;;;;;;;6.13;3.22;;;;;;;;;;5092548;28;20044;-85
2023/03/12 07:18:41;;;;;;;12.90;4.03;;;;;;;;;;5074880;28;20408;-85
2023/03/12 07:21:08;;;;;;;6.85;3.22;;;;;;;;;;5074751;28;20047;-85
2023/03/12 07:23:35;;;;;;;5.93;2.75;;;;;;;;;;5091540;28;20600;-85
2023/03/12 07:26:04;;;;;;;16.88;3.65;;;;;;;;;;5092087;28;20155;-85
2023/03/12 07:28:31;;;;;;;40.42;15.93;;;;;;;;;;5074364;28;20044;-85
2023/03/12 07:31:03;;;;;;;13.15;4.05;;;;;;;;;;5074595;28;20052;-85
2023/03/12 07:33:30;;;;;;;23.48;4.88;;;;;;;;;;5092245;28;20059;-85
2023/03/12 07:35:57;;;;;;;8.95;3.50;;;;;;;;;;5074140;28;20044;-85
2023/03/12 07:38:25;;;;;;;8.00;3.45;;;;;;;;;;5074487;28;20048;-85
2023/03/12 07:40:53;;;;;;;23.80;4.18;;;;;;;;;;5074434;28;20056;-85
2023/03/12 07:43:21;;;;;;;22.27;3.88;;;;;;;;;;5074560;28;20048;-86
2023/03/12 07:45:49;;;;;;;17.13;4.03;;;;;;;;;;5091684;28;20060;-85
2023/03/12 07:48:18;;;;;;;5.22;3.10;;;;;;;;;;5092268;28;20047;-85
2023/03/12 07:50:46;;;;;;;7.28;2.88;;;;;;;;;;5074369;28;20097;-85
2023/03/12 07:53:13;;;;;;;4.90;3.00;;;;;;;;;;5074555;28;20487;-86
2023/03/12 07:55:43;;;;;;;7.55;2.28;;;;;;;;;;5074089;28;20109;-85
2023/03/12 07:58:11;;;;;;;3.72;1.73;;;;;;;;;;5074496;28;20044;-85
2023/03/12 08:00:39;;;;;;;3.05;1.90;;;;;;;;;;5074401;28;20445;-85
2023/03/12 08:03:06;;;;;;;15.60;2.65;;;;;;;;;;5074841;28;20044;-85
2023/03/12 08:05:34;;;;;;;8.10;2.92;;;;;;;;;;5074996;28;20131;-83
2023/03/12 08:08:01;;;;;;;15.32;9.10;;;;;;;;;;5074600;28;20055;-83
2023/03/12 08:10:28;;;;;;;10.68;6.22;;;;;;;;;;5075252;28;20067;-84
2023/03/12 08:12:56;;;;;;;13.38;3.10;;;;;;;;;;5075218;28;20423;-86
2023/03/12 08:15:24;;;;;;;16.05;3.28;;;;;;;;;;5075196;28;20048;-86
2023/03/12 08:17:51;;;;;;;8.40;4.55;;;;;;;;;;5075103;28;20102;-84
2023/03/12 08:20:18;;;;;;;5.72;3.30;;;;;;;;;;5094510;28;20058;-84
2023/03/12 08:22:45;;;;;;;5.32;3.25;;;;;;;;;;5078502;28;20498;-84
2023/03/12 08:25:13;;;;;;;4.80;2.80;;;;;;;;;;5078448;28;20156;-83
2023/03/12 08:27:40;;;;;;;3.35;1.40;;;;;;;;;;5078396;28;20083;-83
2023/03/12 08:30:08;;;;;;;1.63;1.45;;;;;;;;;;5096185;28;20075;-85
2023/03/12 08:32:35;;;;;;;4.03;1.40;;;;;;;;;;5077967;28;20510;-85
2023/03/12 08:35:05;;;;;;;2.38;1.45;;;;;;;;;;5078201;28;20291;-85
2023/03/12 08:37:32;;;;;;;2.22;1.30;;;;;;;;;;5077988;28;20477;-84
2023/03/12 08:39:59;;;;;;;6.88;1.88;;;;;;;;;;5077607;28;20424;-85
2023/03/12 08:42:27;;;;;;;3.42;1.20;;;;;;;;;;5096228;28;20059;-82
2023/03/12 08:44:54;;;;;;;2.83;1.38;;;;;;;;;;5095840;28;20139;-82
2023/03/12 08:47:21;;;;;;;2.60;1.50;;;;;;;;;;5078111;28;20063;-83
2023/03/12 08:49:49;;;;;;;2.38;1.30;;;;;;;;;;5074924;28;20052;-83
2023/03/12 08:52:16;;;;;;;3.15;1.30;;;;;;;;;;5057556;28;20082;-83
2023/03/12 08:54:43;;;;;;;3.35;1.63;;;;;;;;;;5074884;28;20052;-82
2023/03/12 08:57:10;;;;;;;1.40;1.30;;;;;;;;;;5057679;28;20048;-81
2023/03/12 08:59:38;;;;;;;2.67;1.50;;;;;;;;;;5075743;28;20094;-82
2023/03/12 09:02:05;;;;;;;3.40;1.33;;;;;;;;;;5057531;28;20056;-82
2023/03/12 09:04:32;;;;;;;4.72;1.50;;;;;;;;;;5057083;28;20053;-83
2023/03/12 09:07:00;;;;;;;3.08;1.45;;;;;;;;;;5057196;28;20484;-82
2023/03/12 09:09:28;;;;;;;2.47;1.35;;;;;;;;;;5057544;28;20144;-82
2023/03/12 09:11:55;;;;;;;2.88;1.42;;;;;;;;;;5075123;28;20067;-83
2023/03/12 09:14:23;;;;;;;5.43;1.50;;;;;;;;;;5057162;28;20052;-83
2023/03/12 09:17:10;;;;;;;2.13;1.35;;;;;;;;;;5075012;28;20076;-83
2023/03/12 09:19:37;;;;;;;2.95;1.30;;;;;;;;;;5057441;28;20083;-83
2023/03/12 09:22:05;;;;;;;4.07;1.50;;;;;;;;;;5057199;28;20049;-83
2023/03/12 09:24:32;;;;;;;2.45;1.17;;;;;;;;;;5057003;28;20064;-83
2023/03/12 09:27:00;;;;;;;2.53;1.27;;;;;;;;;;5057160;28;20127;-82
2023/03/12 09:29:28;;;;;;;1.95;1.15;;;;;;;;;;5074936;28;20048;-82
2023/03/12 09:31:55;;;;;;;1.90;1.23;;;;;;;;;;5056440;28;20055;-82
2023/03/12 09:34:23;;;;;;;5.15;1.42;;;;;;;;;;5074146;28;20056;-82
2023/03/12 09:36:51;;;;;;;2.90;2.10;;;;;;;;;;5056862;28;20059;-83
2023/03/12 09:39:19;;;;;;;4.05;1.90;;;;;;;;;;5040612;28;20080;-85
2023/03/12 09:41:47;;;;;;;7.55;1.73;;;;;;;;;;5056793;28;20632;-82
2023/03/12 09:44:38;;;;;;;4.93;1.60;;;;;;;;;;5074354;28;20052;-82
2023/03/12 09:47:13;;;;;;;5.60;1.60;;;;;;;;;;5056679;28;20092;-82
2023/03/12 09:49:53;;;;;;;4.07;1.70;;;;;;;;;;5056781;28;20048;-83
2023/03/12 09:52:26;;;;;;;7.97;1.58;;;;;;;;;;5057018;28;20044;-82
2023/03/12 09:54:58;;;;;;;4.13;1.50;;;;;;;;;;5074081;28;20044;-82
2023/03/12 09:57:26;;;;;;;1.98;1.02;;;;;;;;;;5056637;28;20075;-83
2023/03/12 09:59:54;;;;;;;4.03;1.77;;;;;;;;;;5074145;28;20139;-82
2023/03/12 10:02:46;;;;;;;2.03;1.40;;;;;;;;;;5056380;28;20477;-83
2023/03/12 10:05:32;;;;;;;5.88;2.17;;;;;;;;;;5073920;28;20052;-82
2023/03/12 10:08:05;;;;;;;5.82;1.55;;;;;;;;;;5074123;28;20044;-83
2023/03/12 10:11:02;;;;;;;1.98;1.30;;;;;;;;;;5058665;28;20048;-82
2023/03/12 10:13:48;;;;;;;3.92;1.90;;;;;;;;;;5073945;28;20512;-83
2023/03/12 10:16:30;;;;;;;6.30;1.70;;;;;;;;;;5056120;28;20058;-83
2023/03/12 10:19:16;;;;;;;5.18;1.90;;;;;;;;;;5073593;28;20083;-82
2023/03/12 10:22:22;;;;;;;6.45;1.67;;;;;;;;;;5055816;28;20049;-83
2023/03/12 10:24:56;;;;;;;4.63;1.33;;;;;;;;;;4974870;28;20058;-83
2023/03/12 10:27:25;;;;;;;4.88;1.35;;;;;;;;;;4991973;28;20081;-82
2023/03/12 10:29:53;;;;;;;8.50;1.98;;;;;;;;;;5018023;28;20504;-82
2023/03/12 10:32:22;;;;;;;3.45;1.40;;;;;;;;;;5055747;28;20056;-83
2023/03/12 10:34:52;;;;;;;3.97;1.50;;;;;;;;;;5073260;28;20044;-83
2023/03/12 10:37:36;;;;;;;3.83;1.40;;;;;;;;;;5055696;28;20052;-82
2023/03/12 10:40:04;;;;;;;3.15;1.50;;;;;;;;;;5073296;28;20097;-83
2023/03/12 10:42:32;;;;;;;4.15;1.83;;;;;;;;;;5054880;28;20124;-82
2023/03/12 10:45:19;;;;;;;1.70;1.48;;;;;;;;;;5055250;28;20051;-83
2023/03/12 10:47:52;;;;;;;3.65;1.70;;;;;;;;;;5073114;28;20044;-83
2023/03/12 10:50:19;;;;;;;4.22;1.77;;;;;;;;;;5055463;28;20090;-83
2023/03/12 10:52:47;;;;;;;3.58;1.70;;;;;;;;;;5055282;28;20051;-84
2023/03/12 10:55:28;;;;;;;5.22;1.50;;;;;;;;;;5072811;28;20052;-82
2023/03/12 10:57:56;;;;;;;1.90;1.20;;;;;;;;;;5072774;28;20143;-83
2023/03/12 11:00:25;;;;;;;3.80;1.55;;;;;;;;;;5055308;28;20045;-84
2023/03/12 11:03:03;;;;;;;3.33;1.50;;;;;;;;;;5055135;28;20056;-84
2023/03/12 11:05:30;;;;;;;3.00;1.23;;;;;;;;;;5055232;28;20049;-83
2023/03/12 11:07:59;;;;;;;7.80;1.92;;;;;;;;;;5054656;28;20135;-83
2023/03/12 11:10:37;;;;;;;8.20;1.30;;;;;;;;;;5073099;28;20048;-83
2023/03/12 11:13:07;;;;;;;3.08;1.30;;;;;;;;;;5055201;28;20053;-83
2023/03/12 11:15:37;;;;;;;20.67;2.05;;;;;;;;;;5072819;28;20059;-83
2023/03/12 11:18:16;;;;;;;8.43;1.60;;;;;;;;;;5072680;28;20103;-83
2023/03/12 11:20:44;;;;;;;4.82;1.25;;;;;;;;;;5072527;28;20055;-83
2023/03/12 11:23:15;;;;;;;3.88;1.40;;;;;;;;;;5054944;28;20400;-82
2023/03/12 11:25:42;;;;;;;4.95;1.77;;;;;;;;;;5071896;28;20409;-83
2023/03/12 11:28:18;;;;;;;5.10;1.90;;;;;;;;;;5054782;28;20049;-82
2023/03/12 11:30:45;;;;;;;2.30;1.38;;;;;;;;;;5054878;28;20094;-85
2023/03/12 11:33:13;;;;;;;6.60;1.88;;;;;;;;;;5054773;28;20056;-82
2023/03/12 11:35:52;;;;;;;8.57;1.90;;;;;;;;;;5054662;28;20147;-84
2023/03/12 11:38:22;;;;;;;5.35;1.73;;;;;;;;;;5072810;28;20106;-83
2023/03/12 11:40:53;;;;;;;6.70;1.80;;;;;;;;;;5072618;28;20059;-84
2023/03/12 11:43:40;;;;;;;5.97;1.67;;;;;;;;;;5055032;28;20048;-83
2023/03/12 11:46:10;;;;;;;11.13;2.00;;;;;;;;;;5055120;28;20446;-84
2023/03/12 11:48:43;;;;;;;7.57;1.65;;;;;;;;;;5072539;28;20044;-82
2023/03/12 11:51:10;;;;;;;;;;;;;;;;;;5055471;28;20045;-82
2023/03/12 11:53:40;;;;;;;5.43;1.90;;;;;;;;;;5055770;28;19931;-83
2023/03/12 11:56:23;;;;;;;7.05;1.98;;;;;;;;;;5058726;28;20044;-83
2023/03/12 11:59:13;;;;;;;4.47;1.58;;;;;;;;;;5076373;28;20476;-84
2023/03/12 12:01:50;;;;;;;4.97;2.50;;;;;;;;;;5058728;28;20059;-82
2023/03/12 12:04:36;;;;;;;4.03;1.60;;;;;;;;;;5076281;28;20053;-83
2023/03/12 12:07:03;;;;;;;8.15;1.85;;;;;;;;;;5076271;28;20139;-83
2023/03/12 12:09:41;;;;;;;7.50;1.73;;;;;;;;;;5058539;28;20555;-82
2023/03/12 12:12:08;;;;;;;5.38;2.22;;;;;;;;;;5058562;28;20041;-84
2023/03/12 12:14:35;;;;;;;5.90;2.00;;;;;;;;;;5058471;28;20136;-82
2023/03/12 12:17:08;;;;;;;8.95;1.80;;;;;;;;;;5076196;28;20131;-83
2023/03/12 12:19:35;;;;;;;4.82;2.03;;;;;;;;;;5076160;28;20408;-83
2023/03/12 12:22:10;;;;;;;5.97;1.77;;;;;;;;;;5058194;28;20508;-82
2023/03/12 12:24:37;;;;;;;6.28;1.58;;;;;;;;;;5058263;28;20044;-84
2023/03/12 12:27:05;;;;;;;3.25;2.05;;;;;;;;;;5058278;28;20045;-83
2023/03/12 12:29:48;;;;;;;3.60;1.90;;;;;;;;;;5076002;28;20527;-84
2023/03/12 12:32:19;;;;;;;9.45;1.80;;;;;;;;;;5057307;28;20054;-83
2023/03/12 12:34:59;;;;;;;4.75;1.65;;;;;;;;;;5075869;28;20099;-82
2023/03/12 12:37:38;;;;;;;2.83;1.98;;;;;;;;;;5075949;28;20048;-84
2023/03/12 12:40:20;;;;;;;7.38;1.90;;;;;;;;;;5075574;28;20083;-83
2023/03/12 12:42:51;;;;;;;3.72;1.80;;;;;;;;;;5075400;28;20584;-82
2023/03/12 12:45:19;;;;;;;3.13;2.00;;;;;;;;;;5057775;28;20054;-84
2023/03/12 12:47:53;;;;;;;3.75;2.00;;;;;;;;;;5075483;28;20049;-83
2023/03/12 12:50:21;;;;;;;5.13;2.60;;;;;;;;;;5055481;28;20055;-83
2023/03/12 12:52:52;;;;;;;8.23;2.72;;;;;;;;;;5075176;28;20070;-83
2023/03/12 12:55:24;;;;;;;8.20;2.50;;;;;;;;;;5075530;28;20052;-83
2023/03/12 12:57:54;;;;;;;8.63;2.38;;;;;;;;;;5057658;28;20055;-83
2023/03/12 13:00:41;;;;;;;4.78;2.70;;;;;;;;;;5057744;28;20511;-83
2023/03/12 13:03:17;;;;;;;4.00;2.35;;;;;;;;;;5057435;28;20052;-83
2023/03/12 13:05:46;;;;;;;2.53;2.28;;;;;;;;;;5056313;28;20049;-84
2023/03/12 13:08:32;;;;;;;6.38;2.53;;;;;;;;;;5057425;28;20416;-83
2023/03/12 13:10:59;;;;;;;6.88;2.50;;;;;;;;;;5075401;28;20051;-84
2023/03/12 13:14:02;;;;;;;5.03;2.38;;;;;;;;;;5059916;28;20060;-84
2023/03/12 13:16:29;;;;;;;2.85;2.58;;;;;;;;;;5057382;28;20049;-83
2023/03/12 13:18:58;;;;;;;4.55;2.40;;;;;;;;;;5057241;28;20049;-82
2023/03/12 13:21:35;;;;;;;5.65;3.05;;;;;;;;;;5057150;28;20140;-83
2023/03/12 13:24:09;;;;;;;2.85;2.50;;;;;;;;;;5075069;28;20041;-83
2023/03/12 13:26:36;;;;;;;;;;;;;;;;;;5057625;28;20055;-83
2023/03/12 13:29:19;;;;;;;5.63;2.78;;;;;;;;;;5057336;28;19920;-83
2023/03/12 13:31:46;;;;;;;3.22;2.58;;;;;;;;;;5074867;28;20044;-84
2023/03/12 13:34:16;;;;;;;3.15;2.63;;;;;;;;;;5056897;28;20135;-84
2023/03/12 13:36:44;;;;;;;3.80;2.55;;;;;;;;;;5057109;28;20074;-83
2023/03/12 13:39:15;;;;;;;6.55;2.90;;;;;;;;;;5056881;28;20480;-84
2023/03/12 13:41:45;;;;;;;4.35;3.17;;;;;;;;;;5057024;28;20044;-84
2023/03/12 13:44:21;;;;;;;4.07;3.35;;;;;;;;;;5056981;28;20067;-84
2023/03/12 13:47:02;;;;;;;3.08;2.83;;;;;;;;;;5056860;28;20056;-83
2023/03/12 13:49:39;;;;;;;3.35;3.00;;;;;;;;;;5074407;28;20054;-84
2023/03/12 13:52:13;;;;;;;4.20;2.85;;;;;;;;;;5056819;28;20078;-84
2023/03/12 13:54:42;;;;;;;3.70;2.88;;;;;;;;;;5056632;28;20504;-84
2023/03/12 13:57:20;;;;;;;3.20;2.90;;;;;;;;;;5074326;28;20040;-84
2023/03/12 13:59:49;;;;;;;3.72;2.53;;;;;;;;;;5074210;28;20079;-83
2023/03/12 14:02:22;;;;;;;4.20;2.60;;;;;;;;;;5074298;28;20480;-84
2023/03/12 14:04:49;;;;;;;2.42;2.22;;;;;;;;;;5056540;28;20060;-86
2023/03/12 14:07:27;;;;;;;2.33;2.13;;;;;;;;;;5074253;28;20048;-85
2023/03/12 14:09:54;;;;;;;2.30;2.03;;;;;;;;;;5074025;28;20511;-83
2023/03/12 14:12:24;;;;;;;2.17;2.08;;;;;;;;;;5073756;28;20049;-84
2023/03/12 14:15:04;;;;;;;2.67;1.80;;;;;;;;;;5056127;28;20045;-86
2023/03/12 14:17:33;;;;;;;1.42;1.33;;;;;;;;;;5056564;28;20135;-85
2023/03/12 14:20:03;;;;;;;2.10;1.35;;;;;;;;;;5056248;28;20052;-85
2023/03/12 14:22:34;;;;;;;2.08;1.60;;;;;;;;;;5074013;28;20052;-85
2023/03/12 14:25:06;;;;;;;1.55;1.00;;;;;;;;;;5073683;28;20049;-86
2023/03/12 14:27:33;;;;;;;1.63;1.52;;;;;;;;;;5056284;28;20083;-86
2023/03/12 14:30:11;;;;;;;1.00;1.00;;;;;;;;;;5056009;28;20048;-86
2023/03/12 14:32:39;;;;;;;1.48;1.38;;;;;;;;;;5055114;28;20060;-85
2023/03/12 14:35:21;;;;;;;1.20;1.10;;;;;;;;;;5073483;28;20117;-86
2023/03/12 14:37:52;;;;;;;1.13;0.93;;;;;;;;;;5055567;28;20048;-84
2023/03/12 14:40:41;;;;;;;0.80;0.80;;;;;;;;;;5073677;28;20135;-85
2023/03/12 14:43:22;;;;;;;1.20;1.10;;;;;;;;;;5073329;28;20516;-85
2023/03/12 14:45:50;;;;;;;0.88;0.88;;;;;;;;;;5073156;28;20056;-86
2023/03/12 14:48:22;;;;;;;0.70;0.70;;;;;;;;;;5055680;28;20047;-86
2023/03/12 14:50:49;;;;;;;0.40;0.40;;;;;;;;;;5055727;28;20040;-84
2023/03/12 14:53:19;;;;;;;0.70;0.70;;;;;;;;;;5073356;28;20151;-83
2023/03/12 14:55:46;;;;;;;0.43;0.43;;;;;;;;;;5055341;28;20489;-83
2023/03/12 14:58:18;;;;;;;0.35;0.35;;;;;;;;;;5055420;28;20488;-85
2023/03/12 15:00:56;;;;;;;0.40;0.40;;;;;;;;;;5055503;28;20483;-85